Waterford, Ohio
Current Conditions -  °F | °C
As of 3:53 AM on Sunday 26 Oct 2014 (Local Time) from KPKB Reporting Station
Clear Clear  
Wind Chill: 52°   Ceiling: Unl
Heat Index: 52°   Visibility: 10mi
Dew Point: 43°   Wind: 6mph
Humidity: 71%   Direction: 290°WNW
Pressure: 29.9"   Gusts: NA
Location:  39.54°N, 81.64°W
Report Text: KPKB 260753Z AUTO 29005KT 10SM CLR 11/06 A2990 RMK AO2 SLP122 T01110061
Loading
Personal Weather Stations






























Interactive Weather Map New forecast layout! Learn more

10-Day Weather Forecast

Advertisements
Track Severe Weather on mobile